createdAt,value
2023-10-10T00:00:28.615Z,18.60
2023-10-10T00:03:19.543Z,18.40
2023-10-10T00:05:47.891Z,21.00
2023-10-10T00:08:18.130Z,19.20
2023-10-10T00:10:52.840Z,20.10
2023-10-10T00:13:21.185Z,17.90
2023-10-10T00:15:52.999Z,19.00
2023-10-10T00:18:21.174Z,20.20
2023-10-10T00:21:09.083Z,19.80
2023-10-10T00:23:48.501Z,19.10
2023-10-10T00:26:24.353Z,17.20
2023-10-10T00:28:56.465Z,18.40
2023-10-10T00:31:30.297Z,19.20
2023-10-10T00:33:58.284Z,17.60
2023-10-10T00:36:44.401Z,19.50
2023-10-10T00:39:12.546Z,19.70
2023-10-10T00:41:56.144Z,20.20
2023-10-10T00:44:26.507Z,19.50
2023-10-10T00:46:57.807Z,21.10
2023-10-10T00:49:26.855Z,19.00
2023-10-10T00:52:02.825Z,19.90
2023-10-10T00:54:33.710Z,18.40
2023-10-10T00:57:05.223Z,19.10
2023-10-10T00:59:37.162Z,19.80
2023-10-10T01:02:11.887Z,19.30
2023-10-10T01:04:49.639Z,18.60
2023-10-10T01:07:22.893Z,19.90
2023-10-10T01:09:57.327Z,19.00
2023-10-10T01:12:30.281Z,18.60
2023-10-10T01:14:59.095Z,17.60
2023-10-10T01:17:30.962Z,17.70
2023-10-10T01:20:17.061Z,16.00
2023-10-10T01:22:50.531Z,18.10
2023-10-10T01:25:42.681Z,16.80
2023-10-10T01:28:21.600Z,18.90
2023-10-10T01:30:54.272Z,19.40
2023-10-10T01:33:30.344Z,18.40
2023-10-10T01:35:59.604Z,19.70
2023-10-10T01:38:33.600Z,19.00
2023-10-10T01:41:16.945Z,20.50
2023-10-10T01:43:47.672Z,17.90
2023-10-10T01:46:31.462Z,19.00
2023-10-10T01:48:59.200Z,19.20
2023-10-10T01:51:30.761Z,18.10
2023-10-10T01:53:58.930Z,20.30
2023-10-10T01:56:29.769Z,18.00
2023-10-10T01:58:58.524Z,18.50
2023-10-10T02:01:28.669Z,17.50
2023-10-10T02:03:56.562Z,19.90
2023-10-10T02:06:29.117Z,17.90
2023-10-10T02:09:13.547Z,19.10
2023-10-10T02:11:51.162Z,21.00
2023-10-10T02:14:20.539Z,20.30
2023-10-10T02:16:55.426Z,20.60
2023-10-10T02:19:35.084Z,22.10
2023-10-10T02:22:20.522Z,23.30
2023-10-10T02:24:51.261Z,20.50
2023-10-10T02:27:23.513Z,21.80
2023-10-10T02:29:51.333Z,22.90
2023-10-10T02:32:22.796Z,24.70
2023-10-10T02:35:11.133Z,24.80
2023-10-10T02:37:47.425Z,23.30
2023-10-10T02:40:16.467Z,23.80
2023-10-10T02:43:11.331Z,24.90
2023-10-10T02:45:45.957Z,26.50
2023-10-10T02:48:22.050Z,24.80
2023-10-10T02:50:52.948Z,23.40
2023-10-10T02:53:21.228Z,24.90
2023-10-10T02:55:52.991Z,24.10
2023-10-10T02:58:21.849Z,24.30
2023-10-10T03:00:54.265Z,30.00
2023-10-10T03:03:22.778Z,26.30
2023-10-10T03:05:55.848Z,24.30
2023-10-10T03:08:38.365Z,24.90
2023-10-10T03:11:27.571Z,26.40
2023-10-10T03:14:02.336Z,24.00
2023-10-10T03:16:42.974Z,25.50
2023-10-10T03:19:11.684Z,25.50
2023-10-10T03:21:52.346Z,26.20
2023-10-10T03:24:24.034Z,26.10
2023-10-10T03:27:10.910Z,28.80
2023-10-10T03:29:48.615Z,29.20
2023-10-10T03:32:34.077Z,27.20
2023-10-10T03:35:07.798Z,27.50
2023-10-10T03:37:55.571Z,27.30
2023-10-10T03:40:49.560Z,27.50
2023-10-10T03:43:36.856Z,26.70
2023-10-10T03:46:24.080Z,27.00
2023-10-10T03:49:10.961Z,26.30
2023-10-10T03:51:57.706Z,29.40
2023-10-10T03:54:45.083Z,28.80
2023-10-10T03:57:31.848Z,28.30
2023-10-10T04:00:19.683Z,27.40
2023-10-10T04:03:06.668Z,30.60
2023-10-10T04:05:53.586Z,32.40
2023-10-10T04:08:40.741Z,28.80
2023-10-10T04:11:30.716Z,32.30
2023-10-10T04:14:17.879Z,30.20
2023-10-10T04:17:05.157Z,34.00
2023-10-10T04:19:52.414Z,31.10
2023-10-10T04:22:38.814Z,32.60
2023-10-10T04:25:26.488Z,31.90
2023-10-10T04:28:12.756Z,32.30
2023-10-10T04:30:59.795Z,29.80
2023-10-10T04:33:46.047Z,32.90
2023-10-10T04:36:32.923Z,31.20
2023-10-10T04:39:19.065Z,31.00
2023-10-10T04:42:06.348Z,33.00
2023-10-10T04:44:52.748Z,29.20
2023-10-10T04:47:39.566Z,32.00
2023-10-10T04:50:27.778Z,29.30
2023-10-10T04:53:15.018Z,31.10
2023-10-10T04:56:01.808Z,30.90
2023-10-10T04:58:48.431Z,33.10
2023-10-10T05:01:35.034Z,30.70
2023-10-10T05:04:21.899Z,32.20
2023-10-10T05:07:08.701Z,31.30
2023-10-10T05:09:55.481Z,30.50
2023-10-10T05:12:42.425Z,32.60
2023-10-10T05:15:29.557Z,33.40
2023-10-10T05:18:16.240Z,35.70
2023-10-10T05:21:03.141Z,33.50
2023-10-10T05:23:31.750Z,34.30
2023-10-10T05:26:00.929Z,35.50
2023-10-10T05:28:32.096Z,36.90
2023-10-10T05:31:04.177Z,36.70
2023-10-10T05:33:37.601Z,36.10
2023-10-10T05:36:08.398Z,33.80
2023-10-10T05:38:40.856Z,37.20
2023-10-10T05:41:11.806Z,34.50
2023-10-10T05:43:40.989Z,37.10
2023-10-10T05:46:10.382Z,35.10
2023-10-10T05:48:38.970Z,33.20
2023-10-10T05:51:10.061Z,36.70
2023-10-10T05:53:38.242Z,34.50
2023-10-10T05:56:17.251Z,35.90
2023-10-10T05:58:46.561Z,37.50
2023-10-10T06:01:15.805Z,35.90
2023-10-10T06:03:47.246Z,34.20
2023-10-10T06:06:17.045Z,34.30
2023-10-10T06:08:46.326Z,35.50
2023-10-10T06:11:18.257Z,34.50
2023-10-10T06:13:47.649Z,32.60
2023-10-10T06:16:18.596Z,35.10
2023-10-10T06:18:48.480Z,34.50
2023-10-10T06:21:19.764Z,35.30
2023-10-10T06:23:49.787Z,35.90
2023-10-10T06:26:22.797Z,32.90
2023-10-10T06:28:54.879Z,31.70
2023-10-10T06:31:25.372Z,34.70
2023-10-10T06:33:53.686Z,33.70
2023-10-10T06:36:21.551Z,35.90
2023-10-10T06:39:06.841Z,32.20
2023-10-10T06:41:48.907Z,34.40
2023-10-10T06:44:34.203Z,35.00
2023-10-10T06:47:10.375Z,37.50
2023-10-10T06:49:45.419Z,33.70
2023-10-10T06:52:19.801Z,33.30
2023-10-10T06:54:55.581Z,31.90
2023-10-10T06:57:53.378Z,33.20
2023-10-10T07:00:22.651Z,36.30
2023-10-10T07:02:54.655Z,32.80
2023-10-10T07:05:27.983Z,35.50
2023-10-10T07:08:00.284Z,33.80
2023-10-10T07:10:35.303Z,33.00
2023-10-10T07:13:04.685Z,31.70
2023-10-10T07:15:36.904Z,31.50
2023-10-10T07:18:16.170Z,34.10
2023-10-10T07:21:04.624Z,34.20
2023-10-10T07:23:40.713Z,31.80
2023-10-10T07:26:20.988Z,29.50
2023-10-10T07:28:50.189Z,30.80
2023-10-10T07:31:19.051Z,30.50
2023-10-10T07:33:56.930Z,32.50
2023-10-10T07:36:26.473Z,29.30
2023-10-10T07:39:15.603Z,28.30
2023-10-10T07:41:46.536Z,26.70
2023-10-10T07:44:23.614Z,27.00
2023-10-10T07:47:11.474Z,26.70
2023-10-10T07:50:00.112Z,25.40
2023-10-10T07:52:28.452Z,22.70
2023-10-10T07:55:04.506Z,23.20
2023-10-10T07:57:54.818Z,24.40
2023-10-10T08:00:28.885Z,22.70
2023-10-10T08:02:57.312Z,20.70
2023-10-10T08:05:26.780Z,21.90
2023-10-10T08:07:54.724Z,17.70
2023-10-10T08:10:39.908Z,19.60
2023-10-10T08:13:14.626Z,16.90
2023-10-10T08:15:56.482Z,17.60
2023-10-10T08:18:51.810Z,16.90
2023-10-10T08:21:23.700Z,16.60
2023-10-10T08:23:58.210Z,16.60
2023-10-10T08:26:27.879Z,15.60
2023-10-10T08:28:57.213Z,18.50
2023-10-10T08:31:25.351Z,18.60
2023-10-10T08:33:53.646Z,16.00
2023-10-10T08:36:25.081Z,18.10
2023-10-10T08:38:57.559Z,19.30
2023-10-10T08:41:32.466Z,16.70
2023-10-10T08:44:02.941Z,15.80
2023-10-10T08:46:32.917Z,19.40
2023-10-10T08:49:05.092Z,16.70
2023-10-10T08:51:36.155Z,18.80
2023-10-10T08:54:12.633Z,16.40
2023-10-10T08:57:00.623Z,19.00
2023-10-10T08:59:30.785Z,16.60
2023-10-10T09:02:21.622Z,20.10
2023-10-10T09:04:52.196Z,16.80
2023-10-10T09:07:29.187Z,18.10
2023-10-10T09:10:06.788Z,18.90
2023-10-10T09:12:54.359Z,17.20
2023-10-10T09:15:23.605Z,18.80
2023-10-10T09:17:56.967Z,20.10
2023-10-10T09:20:33.787Z,19.50
2023-10-10T09:23:06.042Z,18.70
2023-10-10T09:25:43.827Z,20.60
2023-10-10T09:28:16.853Z,18.70
2023-10-10T09:31:00.932Z,21.60
2023-10-10T09:33:34.868Z,19.20
2023-10-10T09:36:17.543Z,19.20
2023-10-10T09:38:47.642Z,19.90
2023-10-10T09:41:33.035Z,20.70
2023-10-10T09:44:26.746Z,20.60
2023-10-10T09:47:10.058Z,20.10
2023-10-10T09:53:02.553Z,20.10
2023-10-10T09:56:08.640Z,25.80
2023-10-10T09:59:32.302Z,22.80
2023-10-10T10:02:09.370Z,20.50
2023-10-10T10:04:45.719Z,22.50
2023-10-10T10:08:11.484Z,23.10
2023-10-10T10:11:13.671Z,23.60
2023-10-10T10:14:21.320Z,24.70
2023-10-10T10:17:17.180Z,21.60
2023-10-10T10:20:33.678Z,21.40
2023-10-10T10:23:02.396Z,24.60
2023-10-10T10:28:30.249Z,23.90
2023-10-10T10:31:07.236Z,21.90
2023-10-10T10:36:37.447Z,21.40
2023-10-10T10:39:45.485Z,22.60
2023-10-10T10:42:25.640Z,22.10
2023-10-10T10:45:35.987Z,23.60
2023-10-10T10:48:34.987Z,22.40
2023-10-10T10:54:51.156Z,19.40
2023-10-10T10:57:49.767Z,20.20
2023-10-10T11:04:09.568Z,18.90
2023-10-10T11:07:05.021Z,16.60
2023-10-10T11:12:23.208Z,17.50
2023-10-10T11:14:54.929Z,15.40
2023-10-10T11:17:25.973Z,14.30
2023-10-10T11:19:55.843Z,13.90
2023-10-10T11:22:42.896Z,12.80
2023-10-10T11:25:28.542Z,11.80
2023-10-10T11:31:16.101Z,12.20
2023-10-10T11:33:56.891Z,10.40
2023-10-10T11:36:41.350Z,11.20
2023-10-10T11:39:33.643Z,10.70
2023-10-10T11:42:13.314Z,10.00
2023-10-10T11:44:47.322Z,10.50
2023-10-10T11:47:28.749Z,10.00
2023-10-10T11:50:06.861Z,12.70
2023-10-10T11:52:35.767Z,10.40
2023-10-10T11:58:19.552Z,11.10
2023-10-10T12:01:13.752Z,10.70
2023-10-10T12:03:42.991Z,10.20
2023-10-10T12:06:15.771Z,9.90
2023-10-10T12:08:51.983Z,8.50
2023-10-10T12:11:26.718Z,7.80
2023-10-10T12:14:25.818Z,8.90
2023-10-10T12:17:13.725Z,8.50
2023-10-10T12:19:52.339Z,8.20
2023-10-10T12:22:24.917Z,7.70
2023-10-10T12:28:02.763Z,7.20
2023-10-10T12:30:37.147Z,7.90
2023-10-10T12:36:34.401Z,6.90
2023-10-10T12:39:09.464Z,6.60
2023-10-10T12:48:18.134Z,6.60
2023-10-10T12:50:51.645Z,6.70
2023-10-10T12:53:52.828Z,8.10
2023-10-10T12:56:38.923Z,7.50
2023-10-10T12:59:26.618Z,6.20
2023-10-10T13:08:00.651Z,5.90
2023-10-10T13:10:36.944Z,5.90
2023-10-10T13:13:37.177Z,4.90
2023-10-10T13:16:24.890Z,5.10
2023-10-10T13:18:55.212Z,4.60
2023-10-10T13:21:30.981Z,6.70
2023-10-10T13:23:59.598Z,5.20
2023-10-10T13:26:37.595Z,5.10
2023-10-10T13:29:14.744Z,3.90
2023-10-10T13:31:57.518Z,3.70
2023-10-10T13:34:34.205Z,4.90
2023-10-10T13:37:09.080Z,3.70
2023-10-10T13:39:50.090Z,4.80
2023-10-10T13:42:23.180Z,3.90
2023-10-10T13:45:13.736Z,3.70
2023-10-10T13:48:13.831Z,5.10
2023-10-10T13:50:55.786Z,2.70
2023-10-10T13:53:26.099Z,3.50
2023-10-10T13:56:13.427Z,2.40
2023-10-10T13:58:51.710Z,3.80
2023-10-10T14:01:31.261Z,3.00
2023-10-10T14:04:06.574Z,4.20
2023-10-10T14:07:07.011Z,4.30
2023-10-10T14:09:47.962Z,3.50
2023-10-10T14:12:22.089Z,4.10
2023-10-10T14:14:50.295Z,4.00
2023-10-10T14:17:20.924Z,4.00
2023-10-10T14:20:03.084Z,4.40
2023-10-10T14:22:41.744Z,4.90
2023-10-10T14:25:25.375Z,4.00
2023-10-10T14:27:53.118Z,4.80
2023-10-10T14:39:56.017Z,5.80
2023-10-10T14:42:45.843Z,5.50
2023-10-10T14:46:01.028Z,4.90
2023-10-10T14:48:36.624Z,4.70
2023-10-10T14:51:10.585Z,5.10
2023-10-10T14:53:49.567Z,5.20
2023-10-10T14:56:21.743Z,4.70
2023-10-10T14:58:51.421Z,4.50
2023-10-10T15:01:24.536Z,5.00
2023-10-10T15:04:11.150Z,5.90
2023-10-10T15:06:44.984Z,4.00
2023-10-10T15:09:20.928Z,5.80
2023-10-10T15:11:54.459Z,5.90
2023-10-10T15:14:23.322Z,4.20
2023-10-10T15:16:53.582Z,5.40
2023-10-10T15:19:21.470Z,6.30
2023-10-10T15:21:51.149Z,4.70
2023-10-10T15:24:24.920Z,4.60
2023-10-10T15:27:22.033Z,6.20
2023-10-10T15:29:51.090Z,5.30
2023-10-10T15:32:19.221Z,6.10
2023-10-10T15:34:52.978Z,8.60
2023-10-10T15:37:27.836Z,7.60
2023-10-10T15:40:00.128Z,5.90
2023-10-10T15:42:30.300Z,5.70
2023-10-10T15:45:07.191Z,5.40
2023-10-10T15:47:44.114Z,7.20
2023-10-10T15:50:21.010Z,7.70
2023-10-10T15:52:55.978Z,8.10
2023-10-10T15:55:35.307Z,6.70
2023-10-10T15:58:08.018Z,8.20
2023-10-10T16:00:36.485Z,7.90
2023-10-10T16:03:08.242Z,8.70
2023-10-10T16:05:42.915Z,6.80
2023-10-10T16:08:13.750Z,8.50
2023-10-10T16:10:43.284Z,6.80
2023-10-10T16:13:14.654Z,11.10
2023-10-10T16:15:42.586Z,11.30
2023-10-10T16:18:11.172Z,10.50
2023-10-10T16:20:42.448Z,14.00
2023-10-10T16:23:13.803Z,12.30
2023-10-10T16:25:52.004Z,11.40
2023-10-10T16:28:23.829Z,8.60
2023-10-10T16:30:54.645Z,8.70
2023-10-10T16:33:24.968Z,8.80
2023-10-10T16:35:55.402Z,9.70
2023-10-10T16:38:25.428Z,9.10
2023-10-10T16:40:56.719Z,10.20
2023-10-10T16:43:25.610Z,10.30
2023-10-10T16:45:53.730Z,9.20
2023-10-10T16:48:21.700Z,11.70
2023-10-10T16:50:52.297Z,10.40
2023-10-10T16:53:20.157Z,12.20
2023-10-10T16:55:47.887Z,10.80
2023-10-10T16:58:15.977Z,10.60
2023-10-10T17:00:50.194Z,10.70
2023-10-10T17:03:18.402Z,9.60
2023-10-10T17:05:53.542Z,10.60
2023-10-10T17:08:22.705Z,10.10
2023-10-10T17:10:52.525Z,12.10
2023-10-10T17:13:21.366Z,12.60
2023-10-10T17:15:59.433Z,13.00
2023-10-10T17:18:28.859Z,11.70
2023-10-10T17:21:01.698Z,11.20
2023-10-10T17:23:30.104Z,11.50
2023-10-10T17:25:58.727Z,12.60
2023-10-10T17:28:29.071Z,13.40
2023-10-10T17:30:58.027Z,13.40
2023-10-10T17:33:27.793Z,11.60
2023-10-10T17:35:56.954Z,13.90
2023-10-10T17:38:25.099Z,13.30
2023-10-10T17:40:53.296Z,15.50
2023-10-10T17:43:22.476Z,13.40
2023-10-10T17:45:50.827Z,14.70
2023-10-10T17:48:18.860Z,14.80
2023-10-10T17:50:48.220Z,16.30
2023-10-10T17:55:50.818Z,14.80
2023-10-10T17:58:19.808Z,16.50
2023-10-10T18:00:57.296Z,16.20
2023-10-10T18:03:26.655Z,13.90
2023-10-10T18:05:55.697Z,14.10
2023-10-10T18:08:23.628Z,13.90
2023-10-10T18:10:51.494Z,16.30
2023-10-10T18:13:19.482Z,13.70
2023-10-10T18:15:47.698Z,13.10
2023-10-10T18:18:17.278Z,14.00
2023-10-10T18:20:48.331Z,15.40
2023-10-10T18:23:17.555Z,16.40
2023-10-10T18:28:25.328Z,15.60
2023-10-10T18:30:58.145Z,13.30
2023-10-10T18:33:28.205Z,14.60
2023-10-10T18:35:56.421Z,14.90
2023-10-10T18:38:24.277Z,17.70
2023-10-10T18:40:54.688Z,17.20
2023-10-10T18:43:23.881Z,15.20
2023-10-10T18:45:54.576Z,17.80
2023-10-10T18:48:28.915Z,15.60
2023-10-10T18:50:57.506Z,15.60
2023-10-10T18:53:27.307Z,15.00
2023-10-10T18:55:56.403Z,16.40
2023-10-10T18:58:24.329Z,14.30
2023-10-10T19:00:54.708Z,16.50
2023-10-10T19:03:23.790Z,15.10
2023-10-10T19:05:52.229Z,14.10
2023-10-10T19:08:21.030Z,14.60
2023-10-10T19:10:51.962Z,15.00
2023-10-10T19:13:21.021Z,14.30
2023-10-10T19:15:49.163Z,15.20
2023-10-10T19:18:17.736Z,15.40
2023-10-10T19:20:48.018Z,14.50
2023-10-10T19:23:16.272Z,15.20
2023-10-10T19:25:47.814Z,16.70
2023-10-10T19:28:17.573Z,15.60
2023-10-10T19:30:47.209Z,16.30
2023-10-10T19:33:16.361Z,14.90
2023-10-10T19:35:45.718Z,16.50
2023-10-10T19:38:14.097Z,17.10
2023-10-10T19:40:44.823Z,19.00
2023-10-10T19:43:16.329Z,16.80
2023-10-10T19:45:46.709Z,16.10
2023-10-10T19:48:18.387Z,17.40
2023-10-10T19:50:48.839Z,15.60
2023-10-10T19:53:17.424Z,19.20
2023-10-10T19:55:50.459Z,19.00
2023-10-10T19:58:22.172Z,20.20
2023-10-10T20:00:50.479Z,17.20
2023-10-10T20:03:28.103Z,18.50
2023-10-10T20:05:57.939Z,17.60
2023-10-10T20:08:25.845Z,17.70
2023-10-10T20:10:55.530Z,18.00
2023-10-10T20:13:23.651Z,19.20
2023-10-10T20:15:53.893Z,18.10
2023-10-10T20:18:22.099Z,19.40
2023-10-10T20:20:50.310Z,19.60
2023-10-10T20:23:18.010Z,20.00
2023-10-10T20:25:45.765Z,17.60
2023-10-10T20:28:14.865Z,18.60
2023-10-10T20:30:45.004Z,19.80
2023-10-10T20:33:17.511Z,18.10
2023-10-10T20:35:46.337Z,18.90
2023-10-10T20:38:20.669Z,20.80
2023-10-10T20:40:49.118Z,18.10
2023-10-10T20:43:17.020Z,19.00
2023-10-10T20:45:45.087Z,18.90
2023-10-10T20:48:22.807Z,20.10
2023-10-10T20:50:51.377Z,18.80
2023-10-10T20:53:20.997Z,18.80
2023-10-10T20:55:49.960Z,20.80
2023-10-10T20:58:17.955Z,21.60
2023-10-10T21:00:46.175Z,19.50
2023-10-10T21:03:15.646Z,22.30
2023-10-10T21:05:48.343Z,21.90
2023-10-10T21:08:18.836Z,20.10
2023-10-10T21:10:47.102Z,21.10
2023-10-10T21:13:15.590Z,21.50
2023-10-10T21:15:44.077Z,21.70
2023-10-10T21:18:12.612Z,20.60
2023-10-10T21:20:56.574Z,19.80
2023-10-10T21:23:28.626Z,21.30
2023-10-10T21:25:56.537Z,20.90
2023-10-10T21:28:24.262Z,21.50
2023-10-10T21:30:52.848Z,19.70
2023-10-10T21:33:20.909Z,18.50
2023-10-10T21:35:50.893Z,18.50
2023-10-10T21:38:21.848Z,17.20
2023-10-10T21:40:50.742Z,18.90
2023-10-10T21:43:19.167Z,18.30
2023-10-10T21:45:47.386Z,18.30
2023-10-10T21:48:19.015Z,18.90
2023-10-10T21:50:46.961Z,19.00
2023-10-10T21:53:15.857Z,18.40
2023-10-10T21:55:44.136Z,17.70
2023-10-10T21:58:15.047Z,20.40
2023-10-10T22:00:43.219Z,16.70
2023-10-10T22:03:49.177Z,20.60
2023-10-10T22:06:19.242Z,21.10
2023-10-10T22:14:18.715Z,17.90
2023-10-10T22:16:47.398Z,18.10
2023-10-10T22:19:15.870Z,19.10
2023-10-10T22:21:44.371Z,18.70
2023-10-10T22:24:15.766Z,19.60
2023-10-10T22:26:44.142Z,17.20
2023-10-10T22:29:12.897Z,19.10
2023-10-10T22:31:43.473Z,19.40
2023-10-10T22:34:11.892Z,20.50
2023-10-10T22:36:40.204Z,18.10
2023-10-10T22:39:10.208Z,19.50
2023-10-10T22:41:38.692Z,19.20
2023-10-10T22:44:07.385Z,19.40
2023-10-10T22:46:35.727Z,16.70
2023-10-10T22:49:07.358Z,19.50
2023-10-10T22:51:37.543Z,16.10
2023-10-10T22:54:07.378Z,18.70
2023-10-10T22:56:35.823Z,18.60
2023-10-10T22:59:08.728Z,17.40
2023-10-10T23:01:37.317Z,17.10
2023-10-10T23:04:08.815Z,19.40
2023-10-10T23:06:38.117Z,20.70
2023-10-10T23:11:38.076Z,18.60
2023-10-10T23:14:06.535Z,19.90
2023-10-10T23:16:36.676Z,18.30
2023-10-10T23:19:07.167Z,18.50
2023-10-10T23:21:36.021Z,21.10
2023-10-10T23:24:07.442Z,19.10
2023-10-10T23:26:35.716Z,21.20
2023-10-10T23:29:04.489Z,19.00
2023-10-10T23:31:32.701Z,18.20
2023-10-10T23:34:02.758Z,18.00
2023-10-10T23:36:37.412Z,17.70
2023-10-10T23:39:09.915Z,18.10
2023-10-10T23:41:38.460Z,18.10
2023-10-10T23:44:10.919Z,17.90
2023-10-10T23:46:39.316Z,18.70
2023-10-10T23:49:09.213Z,18.50
2023-10-10T23:51:37.492Z,19.90
2023-10-10T23:54:06.259Z,17.80
2023-10-10T23:56:35.523Z,17.70
